createdAt,value
2022-11-22T00:00:43.537Z,32.30
2022-11-22T00:03:10.505Z,35.17
2022-11-22T00:05:37.570Z,31.98
2022-11-22T00:08:05.117Z,33.60
2022-11-22T00:10:32.699Z,33.20
2022-11-22T00:13:00.201Z,34.65
2022-11-22T00:15:27.148Z,32.78
2022-11-22T00:17:53.807Z,37.83
2022-11-22T00:20:23.381Z,33.97
2022-11-22T00:22:50.062Z,35.25
2022-11-22T00:25:17.050Z,29.25
2022-11-22T00:27:44.595Z,36.17
2022-11-22T00:30:11.927Z,29.60
2022-11-22T00:32:38.567Z,36.53
2022-11-22T00:35:06.265Z,31.45
2022-11-22T00:37:33.317Z,35.83
2022-11-22T00:40:00.018Z,33.08
2022-11-22T00:42:26.696Z,34.72
2022-11-22T00:44:53.344Z,30.63
2022-11-22T00:47:20.043Z,29.67
2022-11-22T00:49:46.788Z,31.40
2022-11-22T00:52:13.719Z,30.02
2022-11-22T00:54:40.421Z,29.70
2022-11-22T00:57:07.265Z,30.65
2022-11-22T00:59:34.035Z,28.67
2022-11-22T01:02:00.781Z,31.25
2022-11-22T01:04:27.676Z,29.00
2022-11-22T01:06:54.447Z,27.02
2022-11-22T01:09:24.388Z,28.65
2022-11-22T01:11:54.721Z,32.75
2022-11-22T01:14:21.803Z,27.15
2022-11-22T01:16:48.743Z,30.85
2022-11-22T01:19:16.009Z,28.48
2022-11-22T01:21:43.382Z,28.80
2022-11-22T01:24:13.152Z,24.38
2022-11-22T01:26:42.325Z,30.20
2022-11-22T01:29:08.956Z,30.25
2022-11-22T01:31:35.637Z,24.70
2022-11-22T01:34:05.615Z,29.17
2022-11-22T01:36:32.495Z,24.45
2022-11-22T01:38:59.201Z,25.67
2022-11-22T01:41:26.089Z,26.80
2022-11-22T01:43:52.741Z,29.50
2022-11-22T01:46:37.220Z,31.70
2022-11-22T01:49:31.194Z,31.15
2022-11-22T01:52:12.204Z,33.37
2022-11-22T01:54:45.409Z,29.00
2022-11-22T01:57:23.965Z,26.75
2022-11-22T02:00:02.074Z,28.08
2022-11-22T02:02:28.964Z,26.40
2022-11-22T02:05:02.424Z,31.67
2022-11-22T02:07:49.594Z,29.95
2022-11-22T02:10:20.807Z,25.92
2022-11-22T02:12:51.798Z,27.77
2022-11-22T02:15:18.779Z,28.33
2022-11-22T02:17:45.621Z,24.95
2022-11-22T02:20:13.241Z,23.02
2022-11-22T02:23:02.350Z,28.25
2022-11-22T02:26:00.179Z,27.10
2022-11-22T02:28:37.887Z,26.92
2022-11-22T02:31:04.575Z,22.83
2022-11-22T02:33:31.439Z,23.05
2022-11-22T02:35:59.743Z,27.60
2022-11-22T02:38:35.377Z,27.77
2022-11-22T02:41:08.789Z,25.42
2022-11-22T02:43:45.899Z,27.67
2022-11-22T02:46:20.628Z,26.42
2022-11-22T02:48:48.460Z,21.60
2022-11-22T02:51:20.099Z,25.67
2022-11-22T02:53:50.704Z,26.00
2022-11-22T02:56:20.117Z,29.30
2022-11-22T02:58:46.919Z,19.42
2022-11-22T03:01:13.946Z,25.38
2022-11-22T03:03:43.918Z,24.13
2022-11-22T03:06:10.658Z,26.20
2022-11-22T03:08:37.375Z,24.63
2022-11-22T03:11:04.095Z,25.08
2022-11-22T03:13:30.824Z,24.35
2022-11-22T03:15:57.464Z,26.70
2022-11-22T03:18:24.103Z,24.10
2022-11-22T03:20:50.709Z,23.27
2022-11-22T03:23:17.495Z,24.80
2022-11-22T03:25:44.204Z,25.88
2022-11-22T03:28:10.983Z,24.23
2022-11-22T03:30:42.289Z,27.02
2022-11-22T03:33:11.995Z,27.15
2022-11-22T03:35:39.047Z,29.27
2022-11-22T03:38:07.044Z,27.65
2022-11-22T03:40:34.745Z,24.35
2022-11-22T03:43:04.215Z,21.63
2022-11-22T03:45:31.307Z,29.40
2022-11-22T03:47:57.960Z,24.92
2022-11-22T03:50:25.927Z,21.55
2022-11-22T03:52:52.658Z,28.65
2022-11-22T03:55:19.650Z,27.95
2022-11-22T03:57:49.315Z,29.15
2022-11-22T04:00:18.981Z,26.70
2022-11-22T04:02:45.585Z,27.45
2022-11-22T04:05:12.246Z,24.38
2022-11-22T04:07:41.194Z,24.08
2022-11-22T04:10:08.699Z,23.55
2022-11-22T04:12:36.097Z,27.95
2022-11-22T04:15:08.247Z,27.75
2022-11-22T04:17:44.630Z,25.38
2022-11-22T04:20:40.401Z,21.95
2022-11-22T04:23:20.275Z,27.08
2022-11-22T04:25:54.485Z,21.10
2022-11-22T04:31:32.768Z,22.77
2022-11-22T04:33:59.407Z,19.70
2022-11-22T04:36:26.031Z,19.23
2022-11-22T04:38:55.798Z,22.35
2022-11-22T04:41:22.406Z,22.15
2022-11-22T04:44:07.578Z,24.70
2022-11-22T04:46:34.560Z,26.02
2022-11-22T04:49:01.272Z,26.20
2022-11-22T04:51:46.400Z,25.77
2022-11-22T04:54:12.967Z,23.73
2022-11-22T04:56:40.078Z,23.23
2022-11-22T04:59:06.777Z,25.65
2022-11-22T05:01:33.520Z,23.85
2022-11-22T05:04:03.298Z,21.25
2022-11-22T05:06:30.091Z,24.00
2022-11-22T05:08:59.608Z,21.95
2022-11-22T05:11:26.275Z,23.58
2022-11-22T05:13:52.908Z,26.83
2022-11-22T05:16:19.625Z,23.35
2022-11-22T05:19:00.624Z,23.45
2022-11-22T05:21:29.945Z,30.75
2022-11-22T05:23:57.217Z,24.35
2022-11-22T05:26:31.542Z,21.90
2022-11-22T05:31:29.456Z,21.77
2022-11-22T05:33:57.547Z,24.65
2022-11-22T05:36:24.954Z,21.77
2022-11-22T05:38:52.245Z,22.17
2022-11-22T05:41:19.841Z,22.20
2022-11-22T05:43:49.003Z,21.77
2022-11-22T05:46:24.800Z,23.35
2022-11-22T05:48:54.775Z,24.58
2022-11-22T06:10:13.220Z,23.48
2022-11-22T06:12:40.112Z,17.50
2022-11-22T06:15:07.959Z,26.15
2022-11-22T06:17:34.690Z,22.65
2022-11-22T07:05:58.429Z,25.58
2022-11-22T07:08:25.358Z,25.40
2022-11-22T07:21:42.221Z,22.48
2022-11-22T07:24:09.142Z,23.17
2022-11-22T07:26:35.979Z,26.20
2022-11-22T07:29:02.867Z,23.77
2022-11-22T07:47:37.825Z,19.23
2022-11-22T08:25:38.750Z,20.83
2022-11-22T08:28:05.628Z,18.98
2022-11-22T08:30:32.484Z,25.10
2022-11-22T08:32:59.195Z,22.30
2022-11-22T08:35:25.810Z,21.60
2022-11-22T08:37:57.487Z,21.65
2022-11-22T08:54:07.961Z,23.60
2022-11-22T08:59:16.096Z,25.45
2022-11-22T09:01:42.933Z,23.63
2022-11-22T09:04:09.623Z,24.90
2022-11-22T09:09:36.915Z,24.20
2022-11-22T09:22:50.640Z,21.83
2022-11-22T10:15:51.117Z,24.58
2022-11-22T10:18:39.610Z,29.42
2022-11-22T10:21:13.840Z,29.30
2022-11-22T10:26:26.487Z,26.45
2022-11-22T10:29:24.773Z,24.75
2022-11-22T10:32:37.275Z,26.40
2022-11-22T10:35:34.580Z,23.80
2022-11-22T10:38:38.451Z,27.75
2022-11-22T10:42:03.464Z,32.67
2022-11-22T10:44:58.242Z,24.60
2022-11-22T10:48:01.929Z,30.48
2022-11-22T10:50:52.179Z,27.77
2022-11-22T10:54:20.308Z,27.17
2022-11-22T10:57:08.673Z,25.85
2022-11-22T11:00:22.627Z,24.63
2022-11-22T11:03:17.145Z,28.40
2022-11-22T11:06:21.762Z,27.00
2022-11-22T11:11:43.933Z,22.17
2022-11-22T11:14:40.946Z,24.83
2022-11-22T11:17:08.005Z,24.38
2022-11-22T11:19:44.289Z,26.60
2022-11-22T11:22:51.535Z,26.90
2022-11-22T11:25:43.191Z,27.80
2022-11-22T11:28:27.556Z,27.30
2022-11-22T11:31:01.607Z,27.70
2022-11-22T11:33:34.985Z,22.30
2022-11-22T11:36:22.284Z,24.93
2022-11-22T11:38:57.627Z,26.50
2022-11-22T11:41:38.671Z,25.50
2022-11-22T11:44:33.145Z,24.83
2022-11-22T11:47:01.019Z,24.67
2022-11-22T11:49:36.360Z,26.27
2022-11-22T11:52:22.064Z,27.13
2022-11-22T11:54:56.731Z,27.17
2022-11-22T11:57:35.767Z,31.33
2022-11-22T12:00:21.603Z,30.25
2022-11-22T12:02:50.692Z,26.73
2022-11-22T12:05:17.644Z,25.17
2022-11-22T12:07:50.044Z,26.55
2022-11-22T12:10:32.131Z,27.17
2022-11-22T12:13:21.284Z,29.02
2022-11-22T12:16:01.399Z,28.52
2022-11-22T12:18:43.494Z,25.88
2022-11-22T12:21:35.238Z,25.38
2022-11-22T12:27:14.726Z,27.08
2022-11-22T12:35:45.774Z,28.40
2022-11-22T12:38:44.171Z,32.20
2022-11-22T12:53:27.763Z,27.27
2022-11-22T12:56:33.409Z,26.98
2022-11-22T12:59:49.469Z,30.88
2022-11-22T13:05:09.557Z,32.65
2022-11-22T13:07:36.223Z,31.90
2022-11-22T13:10:26.312Z,30.10
2022-11-22T13:12:59.655Z,30.23
2022-11-22T13:15:42.218Z,31.30
2022-11-22T13:18:11.071Z,32.85
2022-11-22T13:30:28.041Z,32.03
2022-11-22T13:33:00.945Z,25.92
2022-11-22T13:35:38.547Z,31.33
2022-11-22T13:59:19.012Z,28.65
2022-11-22T14:01:47.977Z,32.47
2022-11-22T14:04:19.779Z,30.33
2022-11-22T14:07:06.965Z,33.97
2022-11-22T14:09:54.783Z,32.00
2022-11-22T14:12:46.492Z,39.75
2022-11-22T14:15:28.691Z,31.85
2022-11-22T14:18:51.319Z,38.15
2022-11-22T14:21:44.602Z,30.85
2022-11-22T14:25:03.539Z,34.42
2022-11-22T14:28:17.708Z,28.40
2022-11-22T14:30:51.763Z,33.15
2022-11-22T14:36:08.426Z,29.77
2022-11-22T14:38:40.717Z,29.65
2022-11-22T14:41:26.387Z,37.28
2022-11-22T14:52:33.184Z,34.80
2022-11-22T14:55:06.223Z,34.50
2022-11-22T14:57:37.503Z,34.75
2022-11-22T15:00:13.748Z,37.95
2022-11-22T15:03:41.754Z,32.72
2022-11-22T15:09:11.861Z,39.13
2022-11-22T15:10:10.980Z,34.22
2022-11-22T15:13:33.360Z,35.67
2022-11-22T15:57:49.513Z,33.28
2022-11-22T16:00:29.504Z,31.50
2022-11-22T16:03:02.904Z,38.80
2022-11-22T16:06:07.875Z,34.30
2022-11-22T16:16:37.008Z,35.05
2022-11-22T16:25:34.611Z,38.58
2022-11-22T16:28:38.193Z,34.78
2022-11-22T16:31:24.665Z,39.28
2022-11-22T16:33:54.321Z,39.60
2022-11-22T16:36:25.897Z,38.83
2022-11-22T16:41:35.385Z,35.63
2022-11-22T16:44:12.691Z,30.27
2022-11-22T16:49:22.843Z,41.08
2022-11-22T16:51:51.561Z,35.67
2022-11-22T16:54:21.240Z,38.95
2022-11-22T16:56:48.123Z,34.35
2022-11-22T16:59:14.873Z,34.55
2022-11-22T17:01:44.224Z,39.90
2022-11-22T17:04:24.967Z,35.95
2022-11-22T17:06:53.186Z,41.50
2022-11-22T17:09:20.076Z,39.70
2022-11-22T17:11:50.550Z,43.25
2022-11-22T17:14:19.794Z,41.45
2022-11-22T17:16:49.281Z,45.30
2022-11-22T17:19:45.702Z,36.90
2022-11-22T17:22:07.114Z,46.15
2022-11-22T17:24:34.551Z,42.55
2022-11-22T17:27:01.386Z,49.28
2022-11-22T17:29:49.340Z,47.90
2022-11-22T17:34:55.529Z,42.35
2022-11-22T17:37:24.691Z,46.05
2022-11-22T17:39:51.936Z,43.83
2022-11-22T17:42:20.109Z,41.40
2022-11-22T17:44:50.066Z,46.40
2022-11-22T17:47:19.322Z,45.75
2022-11-22T17:49:49.007Z,45.78
2022-11-22T17:57:41.636Z,49.63
2022-11-22T18:00:09.417Z,50.20
2022-11-22T18:02:36.172Z,51.70
2022-11-22T18:05:08.206Z,43.10
2022-11-22T18:07:34.975Z,40.90
2022-11-22T18:10:02.591Z,45.50
2022-11-22T18:12:29.260Z,46.15
2022-11-22T18:14:55.970Z,48.08
2022-11-22T18:17:26.600Z,46.92
2022-11-22T18:19:53.248Z,51.22
2022-11-22T18:22:26.274Z,52.17
2022-11-22T18:24:53.304Z,48.13
2022-11-22T18:27:23.131Z,48.00
2022-11-22T18:29:49.857Z,48.85
2022-11-22T18:32:31.867Z,47.28
2022-11-22T18:34:58.561Z,64.97
2022-11-22T18:37:25.451Z,50.63
2022-11-22T18:39:52.172Z,79.82
2022-11-22T18:45:00.511Z,103.90
2022-11-22T18:52:54.034Z,49.78
2022-11-22T18:55:20.919Z,98.72
2022-11-22T18:57:53.170Z,69.53
2022-11-22T19:03:02.591Z,52.55
2022-11-22T19:05:32.332Z,67.07
2022-11-22T19:07:58.910Z,53.25
2022-11-22T19:10:25.518Z,55.95
2022-11-22T19:12:52.228Z,52.15
2022-11-22T19:15:19.029Z,54.83
2022-11-22T19:17:45.632Z,55.10
2022-11-22T19:20:32.187Z,49.33
2022-11-22T19:22:59.434Z,50.22
2022-11-22T19:25:29.190Z,47.03
2022-11-22T19:27:55.841Z,40.67
2022-11-22T19:30:31.637Z,53.60
2022-11-22T19:32:58.284Z,47.50
2022-11-22T19:35:36.376Z,51.85
2022-11-22T19:38:03.331Z,52.90
2022-11-22T19:40:30.030Z,53.85
2022-11-22T19:42:56.975Z,46.35
2022-11-22T19:45:41.961Z,61.88
2022-11-22T19:48:08.580Z,43.15
2022-11-22T19:50:38.843Z,50.80
2022-11-22T19:53:08.171Z,49.78
2022-11-22T19:55:45.126Z,80.00
2022-11-22T19:58:12.349Z,57.13
2022-11-22T20:00:39.110Z,48.58
2022-11-22T20:03:06.024Z,58.40
2022-11-22T20:05:34.556Z,59.22
2022-11-22T20:08:01.187Z,58.50
2022-11-22T20:10:27.804Z,62.58
2022-11-22T20:12:56.882Z,58.63
2022-11-22T20:15:23.802Z,54.63
2022-11-22T20:17:50.416Z,66.00
2022-11-22T20:25:41.236Z,55.70
2022-11-22T20:28:10.083Z,57.88
2022-11-22T20:30:36.678Z,50.47
2022-11-22T20:33:03.345Z,56.33
2022-11-22T20:35:29.952Z,61.50
2022-11-22T20:37:56.627Z,58.58
2022-11-22T20:40:26.517Z,59.08
2022-11-22T20:42:53.122Z,59.83
2022-11-22T20:45:19.822Z,60.17
2022-11-22T20:47:46.581Z,57.40
2022-11-22T20:50:13.558Z,49.92
2022-11-22T20:52:40.221Z,62.63
2022-11-22T20:55:10.733Z,57.95
2022-11-22T20:57:38.370Z,60.30
2022-11-22T21:00:08.839Z,63.28
2022-11-22T21:02:36.206Z,59.40
2022-11-22T21:05:03.150Z,58.38
2022-11-22T21:07:29.842Z,49.92
2022-11-22T21:09:56.673Z,53.08
2022-11-22T21:12:28.773Z,59.85
2022-11-22T21:14:55.594Z,54.20
2022-11-22T21:17:55.578Z,52.55
2022-11-22T21:20:10.286Z,60.83
2022-11-22T21:22:37.021Z,57.30
2022-11-22T21:25:04.335Z,69.55
2022-11-22T21:27:31.128Z,63.88
2022-11-22T21:29:58.375Z,61.20
2022-11-22T21:32:25.190Z,58.83
2022-11-22T21:34:51.881Z,61.58
2022-11-22T21:37:18.532Z,58.42
2022-11-22T21:39:48.227Z,63.88
2022-11-22T21:42:14.814Z,60.22
2022-11-22T21:44:42.210Z,65.65
2022-11-22T21:47:08.941Z,69.00
2022-11-22T21:49:35.597Z,51.65
2022-11-22T21:52:02.259Z,63.30
2022-11-22T21:54:29.125Z,64.85
2022-11-22T21:56:59.898Z,66.68
2022-11-22T21:59:29.668Z,60.38
2022-11-22T22:01:59.957Z,69.07
2022-11-22T22:04:26.691Z,63.72
2022-11-22T22:06:53.404Z,63.65
2022-11-22T22:09:20.103Z,60.55
2022-11-22T22:11:47.793Z,58.08
2022-11-22T22:14:15.342Z,58.05
2022-11-22T22:16:42.399Z,67.50
2022-11-22T22:19:10.507Z,68.75
2022-11-22T22:21:37.083Z,73.32
2022-11-22T22:24:04.135Z,62.17
2022-11-22T22:26:32.223Z,66.47
2022-11-22T22:28:58.881Z,71.93
2022-11-22T22:31:26.855Z,65.85
2022-11-22T22:33:56.894Z,63.85
2022-11-22T22:36:26.812Z,55.42
2022-11-22T22:38:55.106Z,67.85
2022-11-22T22:41:22.201Z,63.38
2022-11-22T22:43:49.801Z,65.07
2022-11-22T22:46:20.903Z,62.70
2022-11-22T22:48:49.578Z,63.38
2022-11-22T22:51:32.369Z,66.88
2022-11-22T22:54:01.457Z,64.97
2022-11-22T22:56:31.252Z,60.03
2022-11-22T22:59:00.826Z,62.30
2022-11-22T23:01:31.676Z,64.25
2022-11-22T23:04:01.479Z,59.88
2022-11-22T23:06:37.993Z,64.13
2022-11-22T23:09:10.920Z,61.72
2022-11-22T23:11:57.092Z,56.70
2022-11-22T23:14:29.251Z,57.40
2022-11-22T23:16:58.214Z,56.35
2022-11-22T23:19:27.633Z,66.50
2022-11-22T23:21:55.674Z,59.65
2022-11-22T23:24:22.350Z,65.10
2022-11-22T23:26:49.135Z,61.03
2022-11-22T23:29:15.932Z,61.60
2022-11-22T23:31:42.515Z,66.38
2022-11-22T23:34:11.648Z,61.38
2022-11-22T23:36:41.010Z,59.70
2022-11-22T23:39:09.171Z,65.43
2022-11-22T23:41:35.848Z,56.72
2022-11-22T23:44:03.559Z,61.08
2022-11-22T23:46:30.336Z,60.33
2022-11-22T23:49:01.108Z,56.15
2022-11-22T23:51:31.785Z,57.33
2022-11-22T23:54:05.732Z,54.92
2022-11-22T23:56:35.234Z,54.50
2022-11-22T23:59:05.015Z,69.20
